createdAt,value
2018-04-15T00:01:31.904Z,4.50
2018-04-15T00:03:58.853Z,4.13
2018-04-15T00:06:25.967Z,6.50
2018-04-15T00:08:52.947Z,6.33
2018-04-15T00:11:19.816Z,5.07
2018-04-15T00:13:47.584Z,4.73
2018-04-15T00:16:15.330Z,5.33
2018-04-15T00:18:42.374Z,6.23
2018-04-15T00:21:09.420Z,5.63
2018-04-15T00:23:36.267Z,5.33
2018-04-15T00:26:03.211Z,7.17
2018-04-15T00:28:30.172Z,4.20
2018-04-15T00:30:57.106Z,3.77
2018-04-15T00:33:23.956Z,4.13
2018-04-15T00:35:51.655Z,5.87
2018-04-15T00:38:19.386Z,4.57
2018-04-15T00:40:46.228Z,4.63
2018-04-15T00:43:13.183Z,6.00
2018-04-15T00:45:40.335Z,4.33
2018-04-15T00:48:07.168Z,6.17
2018-04-15T00:50:34.015Z,6.03
2018-04-15T00:53:01.073Z,5.47
2018-04-15T00:55:28.115Z,4.20
2018-04-15T00:57:55.059Z,3.20
2018-04-15T01:00:22.017Z,3.50
2018-04-15T01:02:48.956Z,3.83
2018-04-15T01:05:15.805Z,2.97
2018-04-15T01:07:42.746Z,4.13
2018-04-15T01:10:09.799Z,2.83
2018-04-15T01:12:36.754Z,4.37
2018-04-15T01:15:03.698Z,2.17
2018-04-15T01:17:30.641Z,3.83
2018-04-15T01:19:57.704Z,2.13
2018-04-15T01:22:24.532Z,3.57
2018-04-15T01:24:52.200Z,4.23
2018-04-15T01:27:19.154Z,2.57
2018-04-15T01:29:46.305Z,4.03
2018-04-15T01:32:13.355Z,3.83
2018-04-15T01:34:40.920Z,2.80
2018-04-15T01:37:08.682Z,5.87
2018-04-15T01:39:35.780Z,3.00
2018-04-15T01:42:02.783Z,2.93
2018-04-15T01:44:29.724Z,3.27
2018-04-15T01:46:56.675Z,5.33
2018-04-15T01:49:23.725Z,2.27
2018-04-15T01:51:50.680Z,4.17
2018-04-15T01:54:17.490Z,3.37
2018-04-15T01:56:44.334Z,4.13
2018-04-15T01:59:11.299Z,2.87
2018-04-15T02:01:38.250Z,2.37
2018-04-15T02:04:05.202Z,2.77
2018-04-15T02:06:32.142Z,4.20
2018-04-15T02:08:58.969Z,6.10
2018-04-15T02:11:26.043Z,3.83
2018-04-15T02:13:53.093Z,3.63
2018-04-15T02:16:20.143Z,4.43
2018-04-15T02:18:47.081Z,2.70
2018-04-15T02:21:14.129Z,5.73
2018-04-15T02:23:41.086Z,4.60
2018-04-15T02:26:08.007Z,3.37
2018-04-15T02:28:34.982Z,4.20
2018-04-15T02:31:02.039Z,4.90
2018-04-15T02:33:29.083Z,2.57
2018-04-15T02:35:56.132Z,4.97
2018-04-15T02:38:23.079Z,3.60
2018-04-15T02:40:50.119Z,5.20
2018-04-15T02:43:17.176Z,6.50
2018-04-15T02:45:44.118Z,5.20
2018-04-15T02:48:11.070Z,4.03
2018-04-15T02:50:38.112Z,3.33
2018-04-15T02:53:05.056Z,4.67
2018-04-15T02:55:31.788Z,2.20
2018-04-15T02:57:58.752Z,3.30
2018-04-15T03:00:25.590Z,2.80
2018-04-15T03:02:52.542Z,4.70
2018-04-15T03:05:19.487Z,6.13
2018-04-15T03:07:46.358Z,5.03
2018-04-15T03:10:13.389Z,5.60
2018-04-15T03:12:40.326Z,4.13
2018-04-15T03:15:07.278Z,4.73
2018-04-15T03:17:34.229Z,3.20
2018-04-15T03:20:01.068Z,5.30
2018-04-15T03:22:28.013Z,3.40
2018-04-15T03:24:55.072Z,3.67
2018-04-15T03:27:22.111Z,2.37
2018-04-15T03:29:49.068Z,4.50
2018-04-15T03:32:15.881Z,2.90
2018-04-15T03:34:43.466Z,5.63
2018-04-15T03:37:10.420Z,3.77
2018-04-15T03:39:37.341Z,3.20
2018-04-15T03:42:04.108Z,6.70
2018-04-15T03:44:31.065Z,2.87
2018-04-15T03:46:57.790Z,7.03
2018-04-15T03:49:24.739Z,5.53
2018-04-15T03:51:51.796Z,3.40
2018-04-15T03:54:18.738Z,6.63
2018-04-15T03:56:45.680Z,5.00
2018-04-15T03:59:12.638Z,5.93
2018-04-15T04:01:39.575Z,5.77
2018-04-15T04:04:21.472Z,4.67
2018-04-15T04:06:48.429Z,6.20
2018-04-15T04:09:15.162Z,3.80
2018-04-15T04:11:42.123Z,6.20
2018-04-15T04:14:09.171Z,6.73
2018-04-15T04:16:36.105Z,5.60
2018-04-15T04:19:15.238Z,6.30
2018-04-15T04:21:54.169Z,4.87
2018-04-15T04:24:33.413Z,7.77
2018-04-15T04:27:00.257Z,3.70
2018-04-15T04:29:27.306Z,6.30
2018-04-15T04:31:54.260Z,4.33
2018-04-15T04:34:21.303Z,4.00
2018-04-15T04:36:48.344Z,5.10
2018-04-15T04:39:15.288Z,4.70
2018-04-15T04:41:42.118Z,4.23
2018-04-15T04:44:09.092Z,5.90
2018-04-15T04:46:36.038Z,3.40
2018-04-15T04:49:03.077Z,3.60
2018-04-15T04:51:29.922Z,8.53
2018-04-15T04:53:56.874Z,4.90
2018-04-15T04:56:23.926Z,7.47
2018-04-15T04:58:51.696Z,5.97
2018-04-15T05:01:18.631Z,3.97
2018-04-15T05:03:45.589Z,4.70
2018-04-15T05:06:12.536Z,8.10
2018-04-15T05:08:39.371Z,4.07
2018-04-15T05:11:06.367Z,4.03
2018-04-15T05:13:42.960Z,4.23
2018-04-15T05:16:09.838Z,5.40
2018-04-15T05:18:36.640Z,4.97
2018-04-15T05:21:04.346Z,5.03
2018-04-15T05:23:31.293Z,3.57
2018-04-15T05:25:58.252Z,3.77
2018-04-15T05:28:25.290Z,7.27
2018-04-15T05:30:52.351Z,3.57
2018-04-15T05:33:19.145Z,5.80
2018-04-15T05:35:46.142Z,5.87
2018-04-15T05:38:13.287Z,5.63
2018-04-15T05:40:40.240Z,6.60
2018-04-15T05:43:07.177Z,4.30
2018-04-15T05:45:34.127Z,6.00
2018-04-15T05:48:00.866Z,6.10
2018-04-15T05:50:27.926Z,6.80
2018-04-15T05:52:54.884Z,8.13
2018-04-15T05:55:21.664Z,7.87
2018-04-15T05:57:48.668Z,5.50
2018-04-15T06:00:15.713Z,6.20
2018-04-15T06:02:42.654Z,7.70
2018-04-15T06:05:09.715Z,4.30
2018-04-15T06:07:36.692Z,8.63
2018-04-15T06:10:04.518Z,7.93
2018-04-15T06:12:31.467Z,5.33
2018-04-15T06:14:58.536Z,7.40
2018-04-15T06:17:26.099Z,8.27
2018-04-15T06:19:53.339Z,7.00
2018-04-15T06:22:20.276Z,7.53
2018-04-15T06:24:47.124Z,8.33
2018-04-15T06:27:14.584Z,8.73
2018-04-15T06:29:42.847Z,8.20
2018-04-15T06:32:09.808Z,5.47
2018-04-15T06:34:36.753Z,6.43
2018-04-15T06:37:03.703Z,4.50
2018-04-15T06:39:30.657Z,9.67
2018-04-15T06:41:58.321Z,4.50
2018-04-15T06:44:25.974Z,7.47
2018-04-15T06:46:52.921Z,7.83
2018-04-15T06:49:20.957Z,7.93
2018-04-15T06:51:47.840Z,10.00
2018-04-15T06:54:14.797Z,7.70
2018-04-15T06:56:42.772Z,6.23
2018-04-15T06:59:09.810Z,5.10
2018-04-15T07:01:36.675Z,8.67
2018-04-15T07:04:04.482Z,9.10
2018-04-15T07:06:31.878Z,8.63
2018-04-15T07:08:59.755Z,6.30
2018-04-15T07:11:27.302Z,7.93
2018-04-15T07:14:16.877Z,9.13
2018-04-15T07:16:43.945Z,10.93
2018-04-15T07:19:10.987Z,6.70
2018-04-15T07:21:38.141Z,17.07
2018-04-15T07:24:05.815Z,14.03
2018-04-15T07:26:33.068Z,15.73
2018-04-15T07:29:00.014Z,13.57
2018-04-15T07:31:26.959Z,11.03
2018-04-15T07:33:54.001Z,8.73
2018-04-15T07:36:21.059Z,7.57
2018-04-15T07:38:47.892Z,19.60
2018-04-15T07:41:14.845Z,14.70
2018-04-15T07:43:41.900Z,10.57
2018-04-15T07:46:08.734Z,30.17
2018-04-15T07:48:35.567Z,21.97
2018-04-15T07:51:02.741Z,16.27
2018-04-15T07:53:30.190Z,9.77
2018-04-15T07:55:57.444Z,8.67
2018-04-15T07:58:24.711Z,7.67
2018-04-15T08:00:52.567Z,7.47
2018-04-15T08:03:20.447Z,8.03
2018-04-15T08:05:48.305Z,6.17
2018-04-15T08:08:15.255Z,7.27
2018-04-15T08:10:43.737Z,7.40
2018-04-15T08:13:10.727Z,10.73
2018-04-15T08:15:37.749Z,11.87
2018-04-15T08:18:04.799Z,11.63
2018-04-15T08:20:31.835Z,16.67
2018-04-15T08:22:58.777Z,16.20
2018-04-15T08:25:25.728Z,10.70
2018-04-15T08:27:52.723Z,7.60
2018-04-15T08:33:51.391Z,11.50
2018-04-15T08:36:18.242Z,11.63
2018-04-15T08:38:45.283Z,9.67
2018-04-15T08:41:12.443Z,9.43
2018-04-15T08:43:39.261Z,14.27
2018-04-15T08:46:06.954Z,13.17
2018-04-15T08:48:33.799Z,12.70
2018-04-15T08:51:00.839Z,11.57
2018-04-15T08:53:27.648Z,11.13
2018-04-15T08:55:54.667Z,10.73
2018-04-15T08:58:21.588Z,10.13
2018-04-15T09:00:48.504Z,13.50
2018-04-15T09:03:15.684Z,15.13
2018-04-15T09:05:42.521Z,11.67
2018-04-15T09:08:09.579Z,19.03
2018-04-15T09:10:41.659Z,10.23
2018-04-15T09:13:09.413Z,12.87
2018-04-15T09:15:37.219Z,11.47
2018-04-15T09:18:04.970Z,13.53
2018-04-15T09:20:32.721Z,12.53
2018-04-15T09:22:59.647Z,15.83
2018-04-15T09:25:26.595Z,10.60
2018-04-15T09:27:53.545Z,12.70
2018-04-15T09:30:20.603Z,16.60
2018-04-15T09:32:49.077Z,25.70
2018-04-15T09:35:16.028Z,23.67
2018-04-15T09:37:43.082Z,20.00
2018-04-15T09:40:10.131Z,17.27
2018-04-15T09:42:37.107Z,23.97
2018-04-15T09:45:04.127Z,18.80
2018-04-15T09:47:31.372Z,12.27
2018-04-15T09:49:58.327Z,16.60
2018-04-15T09:52:25.274Z,20.57
2018-04-15T09:54:52.313Z,22.80
2018-04-15T09:57:19.163Z,18.17
2018-04-15T09:59:46.311Z,21.17
2018-04-15T10:02:13.359Z,23.73
2018-04-15T10:04:40.935Z,19.23
2018-04-15T10:07:07.891Z,26.80
2018-04-15T10:09:35.948Z,21.93
2018-04-15T10:12:02.789Z,33.07
2018-04-15T10:14:56.791Z,33.47
2018-04-15T10:17:23.824Z,26.70
2018-04-15T10:19:51.647Z,26.83
2018-04-15T10:22:18.641Z,19.43
2018-04-15T10:24:45.503Z,17.67
2018-04-15T10:27:12.465Z,23.20
2018-04-15T10:29:40.565Z,22.70
2018-04-15T10:32:08.369Z,35.47
2018-04-15T10:34:35.325Z,22.93
2018-04-15T10:37:02.288Z,15.10
2018-04-15T10:39:30.038Z,25.40
2018-04-15T10:41:56.961Z,18.50
2018-04-15T10:44:23.718Z,20.33
2018-04-15T10:46:50.767Z,16.87
2018-04-15T10:49:17.718Z,21.23
2018-04-15T10:51:44.672Z,25.07
2018-04-15T10:54:11.729Z,26.53
2018-04-15T10:56:38.764Z,15.03
2018-04-15T10:59:05.821Z,27.17
2018-04-15T11:01:32.865Z,15.33
2018-04-15T11:03:59.682Z,20.23
2018-04-15T11:06:26.658Z,18.70
2018-04-15T11:08:53.479Z,22.47
2018-04-15T11:11:20.547Z,22.47
2018-04-15T11:13:59.036Z,24.97
2018-04-15T11:16:26.013Z,21.70
2018-04-15T11:18:53.689Z,29.50
2018-04-15T11:21:20.628Z,44.93
2018-04-15T11:23:47.683Z,61.77
2018-04-15T11:26:14.733Z,39.47
2018-04-15T11:28:41.774Z,32.47
2018-04-15T11:31:09.542Z,29.57
2018-04-15T11:33:36.624Z,22.17
2018-04-15T11:36:04.356Z,25.53
2018-04-15T11:38:31.198Z,42.60
2018-04-15T11:40:58.261Z,31.17
2018-04-15T11:43:25.307Z,27.63
2018-04-15T11:45:52.247Z,24.63
2018-04-15T11:48:18.974Z,16.63
2018-04-15T11:50:45.855Z,22.03
2018-04-15T11:53:12.900Z,16.47
2018-04-15T11:55:39.831Z,20.37
2018-04-15T11:58:06.708Z,22.00
2018-04-15T12:00:34.338Z,24.73
2018-04-15T12:03:01.500Z,33.67
2018-04-15T12:05:28.550Z,29.60
2018-04-15T12:07:55.599Z,27.43
2018-04-15T12:10:22.661Z,20.73
2018-04-15T12:12:49.595Z,19.30
2018-04-15T12:15:24.918Z,25.37
2018-04-15T12:17:51.878Z,22.87
2018-04-15T12:20:18.929Z,22.30
2018-04-15T12:22:45.728Z,19.30
2018-04-15T12:25:12.724Z,16.73
2018-04-15T12:27:39.676Z,14.27
2018-04-15T12:30:20.166Z,15.63
2018-04-15T12:32:47.759Z,20.07
2018-04-15T12:35:15.472Z,17.17
2018-04-15T12:37:42.372Z,14.77
2018-04-15T12:40:09.467Z,19.60
2018-04-15T12:42:42.004Z,24.50
2018-04-15T12:45:09.101Z,23.43
2018-04-15T12:47:36.344Z,14.13
2018-04-15T12:50:03.604Z,11.40
2018-04-15T12:52:30.539Z,25.70
2018-04-15T12:55:00.883Z,31.10
2018-04-15T12:57:28.550Z,18.43
2018-04-15T12:59:55.594Z,18.57
2018-04-15T13:02:22.650Z,51.73
2018-04-15T13:04:49.699Z,47.73
2018-04-15T13:07:16.741Z,36.23
2018-04-15T13:09:44.597Z,31.93
2018-04-15T13:12:11.672Z,26.10
2018-04-15T13:17:39.855Z,17.67
2018-04-15T13:20:07.725Z,25.93
2018-04-15T13:22:34.809Z,22.43
2018-04-15T13:25:02.427Z,14.50
2018-04-15T13:27:29.493Z,21.67
2018-04-15T13:29:56.438Z,15.57
2018-04-15T13:32:23.484Z,14.53
2018-04-15T13:34:50.526Z,14.13
2018-04-15T13:37:17.478Z,16.33
2018-04-15T13:39:44.941Z,11.73
2018-04-15T13:42:11.984Z,20.70
2018-04-15T13:44:38.943Z,18.50
2018-04-15T13:47:11.893Z,17.47
2018-04-15T13:49:39.071Z,20.03
2018-04-15T13:52:06.058Z,16.00
2018-04-15T13:54:33.904Z,13.63
2018-04-15T13:57:01.013Z,18.47
2018-04-15T13:59:28.245Z,15.20
2018-04-15T14:01:56.625Z,14.30
2018-04-15T14:04:23.856Z,14.97
2018-04-15T14:06:51.961Z,16.07
2018-04-15T14:09:19.394Z,13.23
2018-04-15T14:11:47.405Z,15.50
2018-04-15T14:17:14.733Z,25.23
2018-04-15T14:19:44.251Z,24.63
2018-04-15T14:22:12.439Z,23.10
2018-04-15T14:24:40.949Z,37.50
2018-04-15T14:27:09.091Z,37.90
2018-04-15T14:29:37.369Z,30.60
2018-04-15T14:32:05.853Z,25.67
2018-04-15T14:34:33.803Z,27.27
2018-04-15T14:37:00.953Z,25.37
2018-04-15T14:39:28.833Z,26.83
2018-04-15T14:41:57.020Z,22.33
2018-04-15T14:44:25.263Z,23.77
2018-04-15T14:46:52.543Z,24.43
2018-04-15T14:49:19.803Z,24.70
2018-04-15T14:51:47.922Z,20.80
2018-04-15T14:54:16.355Z,23.03
2018-04-15T14:56:44.533Z,17.10
2018-04-15T14:59:12.971Z,14.77
2018-04-15T15:01:41.295Z,26.07
2018-04-15T15:04:09.590Z,28.40
2018-04-15T15:06:37.855Z,21.17
2018-04-15T15:09:06.361Z,26.33
2018-04-15T15:11:34.448Z,33.10
2018-04-15T15:14:24.422Z,35.47
2018-04-15T15:16:52.467Z,28.67
2018-04-15T15:19:20.625Z,34.37
2018-04-15T15:21:48.752Z,27.43
2018-04-15T15:24:16.934Z,21.90
2018-04-15T15:26:45.387Z,23.20
2018-04-15T15:29:13.673Z,21.20
2018-04-15T15:31:42.040Z,21.93
2018-04-15T15:34:10.428Z,22.57
2018-04-15T15:36:38.479Z,26.73
2018-04-15T15:39:06.429Z,30.30
2018-04-15T15:41:34.132Z,31.53
2018-04-15T15:44:02.415Z,27.90
2018-04-15T15:46:30.823Z,26.07
2018-04-15T15:48:59.195Z,33.73
2018-04-15T15:51:27.496Z,29.60
2018-04-15T15:53:55.113Z,31.67
2018-04-15T15:56:23.391Z,23.27
2018-04-15T15:58:51.370Z,21.30
2018-04-15T16:01:20.575Z,30.07
2018-04-15T16:03:48.022Z,25.70
2018-04-15T16:06:16.416Z,26.77
2018-04-15T16:08:44.076Z,27.20
2018-04-15T16:11:12.389Z,23.27
2018-04-15T16:13:46.724Z,22.73
2018-04-15T16:16:14.534Z,24.00
2018-04-15T16:18:42.922Z,20.77
2018-04-15T16:21:10.490Z,27.93
2018-04-15T16:23:37.897Z,24.60
2018-04-15T16:26:06.834Z,23.57
2018-04-15T16:28:34.295Z,21.87
2018-04-15T16:31:02.679Z,22.33
2018-04-15T16:33:30.946Z,19.03
2018-04-15T16:35:59.226Z,20.30
2018-04-15T16:38:27.461Z,14.83
2018-04-15T16:40:54.974Z,19.90
2018-04-15T16:43:23.150Z,18.77
2018-04-15T16:45:51.475Z,22.17
2018-04-15T16:48:19.900Z,17.13
2018-04-15T16:50:48.454Z,17.27
2018-04-15T16:53:17.624Z,21.10
2018-04-15T16:55:45.160Z,20.47
2018-04-15T16:58:12.655Z,24.50
2018-04-15T17:00:40.074Z,17.07
2018-04-15T17:03:08.472Z,15.10
2018-04-15T17:05:36.734Z,16.07
2018-04-15T17:08:05.208Z,15.80
2018-04-15T17:10:39.401Z,19.43
2018-04-15T17:13:07.802Z,15.83
2018-04-15T17:18:43.174Z,19.23
2018-04-15T17:21:11.247Z,18.17
2018-04-15T17:23:39.625Z,17.83
2018-04-15T17:26:07.910Z,14.63
2018-04-15T17:28:36.119Z,16.23
2018-04-15T17:31:04.480Z,18.40
2018-04-15T17:33:32.803Z,16.90
2018-04-15T17:36:01.223Z,17.13
2018-04-15T17:38:29.717Z,17.63
2018-04-15T17:40:58.048Z,19.87
2018-04-15T17:43:25.649Z,26.90
2018-04-15T17:45:53.427Z,20.93
2018-04-15T17:48:21.900Z,22.23
2018-04-15T17:50:50.278Z,25.93
2018-04-15T17:53:18.600Z,14.67
2018-04-15T17:55:46.945Z,16.17
2018-04-15T17:58:15.070Z,20.83
2018-04-15T18:00:43.811Z,14.90
2018-04-15T18:03:12.283Z,18.80
2018-04-15T18:05:40.666Z,19.07
2018-04-15T18:08:09.047Z,24.53
2018-04-15T18:10:41.275Z,24.10
2018-04-15T18:13:08.775Z,27.13
2018-04-15T18:18:41.387Z,24.20
2018-04-15T18:21:08.669Z,19.40
2018-04-15T18:23:36.809Z,20.27
2018-04-15T18:26:04.727Z,22.03
2018-04-15T18:28:32.567Z,23.73
2018-04-15T18:31:00.685Z,20.27
2018-04-15T18:33:28.691Z,24.50
2018-04-15T18:35:56.981Z,19.73
2018-04-15T18:38:25.158Z,25.53
2018-04-15T18:40:53.430Z,17.80
2018-04-15T18:43:21.660Z,17.60
2018-04-15T18:45:50.392Z,19.63
2018-04-15T18:48:18.877Z,20.57
2018-04-15T18:50:47.164Z,15.03
2018-04-15T18:53:15.707Z,17.03
2018-04-15T18:55:42.997Z,17.53
2018-04-15T18:58:11.385Z,22.50
2018-04-15T19:00:39.838Z,18.07
2018-04-15T19:03:08.251Z,19.57
2018-04-15T19:05:36.830Z,15.77
2018-04-15T19:08:05.048Z,16.20
2018-04-15T19:10:32.989Z,20.43
2018-04-15T19:13:02.173Z,19.37
2018-04-15T19:18:38.572Z,18.57
2018-04-15T19:21:06.984Z,16.90
2018-04-15T19:23:34.196Z,14.50
2018-04-15T19:26:02.383Z,14.77
2018-04-15T19:28:30.862Z,15.33
2018-04-15T19:30:59.142Z,18.20
2018-04-15T19:33:27.417Z,19.47
2018-04-15T19:35:55.696Z,20.40
2018-04-15T19:38:23.988Z,17.93
2018-04-15T19:40:51.637Z,14.27
2018-04-15T19:43:19.586Z,13.87
2018-04-15T19:45:46.810Z,19.93
2018-04-15T19:48:14.215Z,17.03
2018-04-15T19:50:42.393Z,16.90
2018-04-15T19:53:10.833Z,15.77
2018-04-15T19:55:39.206Z,28.03
2018-04-15T19:58:06.659Z,29.27
2018-04-15T20:00:34.932Z,15.90
2018-04-15T20:03:04.150Z,16.17
2018-04-15T20:05:32.067Z,19.10
2018-04-15T20:08:00.351Z,24.20
2018-04-15T20:10:32.436Z,24.57
2018-04-15T20:13:00.864Z,12.87
2018-04-15T20:18:51.827Z,14.63
2018-04-15T20:21:20.252Z,11.67
2018-04-15T20:23:48.481Z,17.33
2018-04-15T20:29:24.766Z,12.73
2018-04-15T20:31:53.673Z,9.37
2018-04-15T20:34:22.270Z,19.37
2018-04-15T20:36:50.626Z,19.50
2018-04-15T20:39:19.518Z,14.17
2018-04-15T20:41:47.693Z,14.60
2018-04-15T20:44:16.996Z,17.93
2018-04-15T20:46:46.513Z,11.20
2018-04-15T20:49:15.027Z,11.63
2018-04-15T20:51:43.577Z,8.87
2018-04-15T20:54:12.820Z,15.97
2018-04-15T20:56:40.546Z,12.73
2018-04-15T20:59:09.025Z,18.27
2018-04-15T21:01:37.536Z,17.83
2018-04-15T21:04:04.861Z,13.20
2018-04-15T21:06:33.180Z,14.87
2018-04-15T21:09:00.804Z,16.17
2018-04-15T21:11:29.406Z,21.77
2018-04-15T21:14:30.640Z,18.00
2018-04-15T21:17:06.397Z,16.77
2018-04-15T21:19:34.683Z,16.57
2018-04-15T21:22:03.058Z,15.27
2018-04-15T21:24:31.245Z,12.47
2018-04-15T21:26:58.686Z,17.97
2018-04-15T21:29:26.906Z,23.43
2018-04-15T21:31:55.245Z,16.00
2018-04-15T21:34:23.733Z,14.53
2018-04-15T21:36:52.007Z,13.13
2018-04-15T21:39:20.590Z,11.13
2018-04-15T21:41:48.658Z,15.07
2018-04-15T21:44:15.919Z,16.17
2018-04-15T21:46:44.309Z,12.13
2018-04-15T21:49:12.507Z,11.53
2018-04-15T21:51:40.862Z,11.33
2018-04-15T21:54:09.149Z,8.03
2018-04-15T21:56:37.419Z,16.57
2018-04-15T21:59:05.375Z,13.77
2018-04-15T22:01:33.119Z,10.67
2018-04-15T22:04:00.065Z,8.97
2018-04-15T22:06:27.118Z,11.50
2018-04-15T22:08:54.167Z,11.63
2018-04-15T22:11:33.198Z,18.07
2018-04-15T22:14:00.035Z,11.83
2018-04-15T22:16:28.002Z,11.77
2018-04-15T22:18:54.925Z,11.47
2018-04-15T22:21:21.897Z,11.33
2018-04-15T22:23:48.957Z,15.40
2018-04-15T22:26:15.876Z,12.20
2018-04-15T22:28:42.840Z,14.00
2018-04-15T22:31:09.704Z,10.60
2018-04-15T22:33:36.737Z,13.33
2018-04-15T22:36:03.731Z,14.97
2018-04-15T22:38:31.462Z,11.73
2018-04-15T22:40:59.226Z,18.30
2018-04-15T22:43:26.167Z,12.50
2018-04-15T22:45:53.115Z,12.30
2018-04-15T22:48:20.062Z,13.87
2018-04-15T22:50:47.929Z,12.27
2018-04-15T22:53:14.985Z,11.97
2018-04-15T22:55:42.139Z,12.17
2018-04-15T22:58:09.078Z,13.10
2018-04-15T23:00:36.027Z,12.07
2018-04-15T23:03:02.866Z,7.30
2018-04-15T23:05:29.926Z,13.13
2018-04-15T23:07:56.657Z,10.50
2018-04-15T23:10:23.717Z,11.43
2018-04-15T23:12:50.767Z,8.83
2018-04-15T23:15:17.817Z,9.57
2018-04-15T23:17:44.855Z,14.40
2018-04-15T23:20:16.005Z,11.90
2018-04-15T23:22:43.062Z,10.77
2018-04-15T23:25:09.997Z,14.33
2018-04-15T23:27:36.946Z,13.73
2018-04-15T23:30:04.021Z,14.57
2018-04-15T23:32:31.773Z,8.53
2018-04-15T23:34:58.708Z,13.93
2018-04-15T23:37:25.668Z,9.70
2018-04-15T23:39:52.714Z,8.83
2018-04-15T23:42:19.767Z,9.87
2018-04-15T23:44:46.612Z,11.17
2018-04-15T23:47:13.661Z,16.07
2018-04-15T23:49:40.703Z,13.57
2018-04-15T23:52:07.758Z,16.17
2018-04-15T23:54:34.592Z,11.40
2018-04-15T23:57:01.663Z,13.47
2018-04-15T23:59:28.524Z,13.37
